Terminal Aerodrome Forecast
Issued by NWS

Home | Current Version | Previous Version | Text Only | Print | Product List | Glossary Off
Versions: 1 2 3 4 5 6 7 8 9 10 11 12 13 14 15 16 17 18 19 20 21 22 23 24 25

000
FTUS43 KICT 152148 AAA
TAFCNU
TAF AMD
KCNU 152148Z 1522/1618 14008KT P6SM SCT035 BKN150
     FM160000 14006KT P6SM VCTS SCT035CB OVC080
      TEMPO 1600/1604 VRB15G30KT 1 1/2SM +TSRA OVC030CB
     FM160500 14005KT P6SM SCT080 BKN250
     FM161100 17006KT P6SM BKN100=

USA.gov is the U.S. government's official web portal to all federal, state and local government web resources and services.